createdAt,value
2023-02-15T00:01:14.183Z,13.57
2023-02-15T00:04:00.539Z,15.98
2023-02-15T00:06:47.195Z,13.00
2023-02-15T00:09:33.039Z,16.52
2023-02-15T00:12:19.813Z,14.15
2023-02-15T00:15:06.366Z,16.58
2023-02-15T00:17:53.005Z,19.30
2023-02-15T00:20:39.713Z,17.98
2023-02-15T00:23:30.165Z,17.75
2023-02-15T00:26:16.092Z,13.07
2023-02-15T00:29:04.978Z,15.23
2023-02-15T00:31:50.762Z,14.88
2023-02-15T00:34:36.889Z,14.80
2023-02-15T00:37:22.892Z,11.38
2023-02-15T00:40:10.008Z,11.57
2023-02-15T00:42:56.891Z,14.75
2023-02-15T00:45:42.644Z,12.40
2023-02-15T00:48:29.808Z,16.27
2023-02-15T00:51:16.288Z,11.00
2023-02-15T00:54:02.278Z,11.52
2023-02-15T00:56:50.455Z,11.35
2023-02-15T00:59:36.621Z,12.98
2023-02-15T01:02:22.900Z,13.77
2023-02-15T01:05:09.824Z,11.75
2023-02-15T01:08:00.762Z,13.48
2023-02-15T01:10:48.743Z,13.02
2023-02-15T01:13:36.646Z,14.43
2023-02-15T01:16:23.985Z,16.17
2023-02-15T01:19:10.422Z,15.18
2023-02-15T01:21:57.280Z,13.48
2023-02-15T01:24:43.593Z,13.60
2023-02-15T01:27:31.585Z,16.92
2023-02-15T01:30:27.328Z,18.38
2023-02-15T01:33:19.240Z,14.25
2023-02-15T01:36:06.451Z,14.77
2023-02-15T01:38:52.307Z,12.93
2023-02-15T01:41:38.303Z,16.73
2023-02-15T01:44:51.085Z,12.68
2023-02-15T01:47:42.671Z,13.23
2023-02-15T01:50:37.146Z,13.80
2023-02-15T01:53:55.549Z,15.55
2023-02-15T01:56:42.190Z,12.05
2023-02-15T01:59:29.349Z,19.13
2023-02-15T02:02:17.632Z,16.00
2023-02-15T02:05:08.502Z,18.63
2023-02-15T02:07:58.075Z,13.57
2023-02-15T02:10:44.064Z,15.05
2023-02-15T02:13:29.959Z,22.80
2023-02-15T02:16:23.642Z,17.70
2023-02-15T02:22:42.763Z,14.98
2023-02-15T02:26:07.429Z,15.50
2023-02-15T02:29:16.863Z,13.55
2023-02-15T02:32:25.499Z,12.45
2023-02-15T02:35:26.729Z,13.93
2023-02-15T02:38:27.793Z,12.88
2023-02-15T02:41:26.733Z,15.05
2023-02-15T02:44:17.646Z,12.05
2023-02-15T02:47:28.141Z,12.18
2023-02-15T02:50:29.165Z,11.55
2023-02-15T02:53:15.163Z,12.20
2023-02-15T02:56:38.891Z,11.48
2023-02-15T02:59:40.512Z,11.50
2023-02-15T03:02:33.023Z,15.52
2023-02-15T03:05:25.008Z,11.85
2023-02-15T03:08:12.835Z,9.00
2023-02-15T03:11:02.426Z,14.10
2023-02-15T03:13:50.752Z,12.85
2023-02-15T03:16:39.186Z,14.57
2023-02-15T03:19:36.851Z,10.55
2023-02-15T03:22:47.228Z,17.77
2023-02-15T03:25:38.834Z,13.27
2023-02-15T03:28:31.920Z,11.90
2023-02-15T03:31:21.085Z,19.58
2023-02-15T03:34:12.514Z,19.48
2023-02-15T03:37:08.138Z,23.70
2023-02-15T03:39:57.767Z,18.13
2023-02-15T03:42:44.974Z,19.25
2023-02-15T03:45:34.988Z,17.88
2023-02-15T03:48:23.965Z,20.23
2023-02-15T03:51:34.298Z,16.15
2023-02-15T03:54:45.866Z,17.55
2023-02-15T03:57:50.016Z,14.93
2023-02-15T04:00:58.599Z,14.70
2023-02-15T04:04:00.925Z,17.88
2023-02-15T04:06:47.159Z,15.10
2023-02-15T04:09:51.552Z,16.75
2023-02-15T04:12:38.097Z,9.98
2023-02-15T04:15:43.302Z,13.95
2023-02-15T04:18:47.464Z,12.23
2023-02-15T04:21:52.038Z,12.32
2023-02-15T04:24:56.409Z,14.02
2023-02-15T04:27:51.431Z,12.23
2023-02-15T04:30:37.457Z,19.83
2023-02-15T04:33:23.377Z,11.75
2023-02-15T04:36:09.498Z,16.58
2023-02-15T04:38:55.748Z,18.35
2023-02-15T04:41:42.369Z,13.70
2023-02-15T04:44:28.430Z,15.88
2023-02-15T04:47:14.360Z,15.77
2023-02-15T04:50:00.468Z,12.70
2023-02-15T04:52:46.468Z,16.33
2023-02-15T04:55:32.457Z,13.18
2023-02-15T04:58:18.393Z,13.20
2023-02-15T05:01:04.746Z,15.40
2023-02-15T05:03:51.149Z,14.70
2023-02-15T05:06:37.372Z,14.90
2023-02-15T05:09:23.265Z,14.27
2023-02-15T05:12:09.380Z,12.60
2023-02-15T05:14:55.936Z,16.67
2023-02-15T05:17:42.197Z,14.38
2023-02-15T05:20:28.264Z,19.58
2023-02-15T05:23:14.737Z,16.55
2023-02-15T05:26:19.033Z,18.92
2023-02-15T05:29:06.236Z,19.48
2023-02-15T05:31:52.890Z,18.58
2023-02-15T05:34:38.660Z,18.77
2023-02-15T05:37:24.754Z,14.82
2023-02-15T05:40:11.619Z,17.90
2023-02-15T05:42:57.995Z,15.93
2023-02-15T05:45:49.090Z,16.95
2023-02-15T05:48:35.686Z,19.77
2023-02-15T05:51:21.665Z,25.55
2023-02-15T05:54:07.805Z,23.02
2023-02-15T05:56:53.990Z,26.75
2023-02-15T05:59:39.937Z,23.10
2023-02-15T06:02:26.434Z,21.88
2023-02-15T06:05:12.668Z,28.17
2023-02-15T06:07:59.360Z,27.58
2023-02-15T06:10:47.723Z,24.33
2023-02-15T06:13:37.222Z,25.25
2023-02-15T06:16:24.317Z,26.88
2023-02-15T06:19:10.293Z,25.35
2023-02-15T06:21:56.163Z,23.40
2023-02-15T06:24:43.717Z,27.90
2023-02-15T06:27:29.710Z,27.20
2023-02-15T06:30:16.005Z,22.55
2023-02-15T06:33:01.935Z,23.50
2023-02-15T06:35:48.336Z,27.50
2023-02-15T06:38:35.158Z,28.25
2023-02-15T06:41:21.177Z,25.38
2023-02-15T06:44:07.169Z,29.08
2023-02-15T06:46:53.161Z,29.20
2023-02-15T06:49:39.382Z,24.95
2023-02-15T06:52:25.464Z,34.85
2023-02-15T06:55:11.599Z,33.72
2023-02-15T06:57:57.782Z,27.17
2023-02-15T07:00:43.842Z,33.25
2023-02-15T07:03:30.553Z,32.92
2023-02-15T07:06:16.259Z,54.47
2023-02-15T07:09:02.341Z,37.10
2023-02-15T07:12:07.004Z,28.58
2023-02-15T07:14:53.358Z,29.85
2023-02-15T07:17:40.000Z,26.95
2023-02-15T07:20:26.545Z,54.67
2023-02-15T07:23:15.189Z,77.90
2023-02-15T07:26:02.022Z,49.33
2023-02-15T07:28:48.507Z,34.75
2023-02-15T07:31:34.542Z,24.10
2023-02-15T07:34:20.357Z,63.20
2023-02-15T07:37:06.678Z,32.30
2023-02-15T07:39:52.291Z,32.20
2023-02-15T07:42:38.507Z,92.70
2023-02-15T07:45:25.274Z,69.18
2023-02-15T07:48:11.297Z,31.35
2023-02-15T07:51:00.847Z,31.30
2023-02-15T07:53:48.774Z,74.20
2023-02-15T07:56:35.824Z,57.25
2023-02-15T07:59:22.954Z,46.30
2023-02-15T08:02:12.421Z,34.05
2023-02-15T08:04:58.509Z,45.10
2023-02-15T08:07:44.643Z,39.22
2023-02-15T08:10:49.095Z,53.88
2023-02-15T08:13:35.104Z,43.88
2023-02-15T08:16:42.746Z,67.35
2023-02-15T08:19:31.478Z,121.68
2023-02-15T08:22:17.474Z,89.20
2023-02-15T08:25:03.670Z,44.47
2023-02-15T08:27:51.817Z,96.80
2023-02-15T08:30:37.489Z,65.97
2023-02-15T08:33:23.397Z,85.53
2023-02-15T08:36:12.884Z,28.95
2023-02-15T08:39:00.622Z,35.75
2023-02-15T08:41:48.223Z,29.58
2023-02-15T08:44:34.644Z,25.90
2023-02-15T08:47:20.596Z,80.72
2023-02-15T08:50:07.341Z,30.02
2023-02-15T08:52:53.950Z,26.35
2023-02-15T08:55:41.015Z,44.67
2023-02-15T08:58:26.917Z,66.43
2023-02-15T09:01:19.069Z,19.73
2023-02-15T09:04:10.228Z,22.23
2023-02-15T09:06:56.429Z,23.67
2023-02-15T09:09:42.188Z,49.17
2023-02-15T09:12:28.073Z,25.48
2023-02-15T09:15:13.873Z,23.08
2023-02-15T09:18:06.989Z,21.35
2023-02-15T09:20:52.778Z,20.90
2023-02-15T09:23:38.940Z,18.58
2023-02-15T09:26:25.799Z,21.30
2023-02-15T09:29:12.782Z,16.75
2023-02-15T09:31:58.640Z,21.35
2023-02-15T09:34:44.482Z,49.67
2023-02-15T09:37:32.930Z,19.05
2023-02-15T09:40:19.584Z,39.75
2023-02-15T09:43:19.866Z,19.08
2023-02-15T09:46:35.142Z,42.45
2023-02-15T09:49:36.406Z,34.63
2023-02-15T09:52:47.499Z,21.92
2023-02-15T09:55:49.150Z,43.70
2023-02-15T09:58:51.593Z,17.20
2023-02-15T10:01:41.334Z,16.23
2023-02-15T10:04:56.990Z,18.98
2023-02-15T10:08:07.337Z,15.60
2023-02-15T10:11:30.517Z,13.10
2023-02-15T10:14:38.743Z,14.93
2023-02-15T10:17:35.872Z,15.48
2023-02-15T10:20:58.833Z,12.73
2023-02-15T10:23:58.472Z,12.33
2023-02-15T10:26:51.563Z,11.70
2023-02-15T10:29:39.826Z,14.55
2023-02-15T10:32:32.232Z,10.98
2023-02-15T10:35:25.910Z,13.10
2023-02-15T10:38:20.490Z,12.75
2023-02-15T10:41:15.987Z,11.98
2023-02-15T10:44:16.741Z,16.40
2023-02-15T10:47:14.397Z,10.27
2023-02-15T10:50:17.970Z,22.20
2023-02-15T10:53:24.792Z,17.42
2023-02-15T10:56:46.516Z,13.23
2023-02-15T10:59:54.522Z,7.75
2023-02-15T11:02:58.840Z,16.42
2023-02-15T11:06:08.435Z,10.52
2023-02-15T11:09:03.067Z,7.82
2023-02-15T11:11:55.158Z,19.92
2023-02-15T11:15:16.585Z,7.43
2023-02-15T11:18:31.634Z,9.63
2023-02-15T11:21:33.631Z,12.23
2023-02-15T11:24:21.303Z,9.85
2023-02-15T11:27:14.180Z,10.07
2023-02-15T11:30:10.506Z,8.90
2023-02-15T11:33:02.970Z,8.55
2023-02-15T11:36:04.994Z,8.20
2023-02-15T11:38:58.170Z,8.18
2023-02-15T11:41:52.798Z,8.52
2023-02-15T11:44:44.820Z,10.35
2023-02-15T11:47:30.609Z,7.57
2023-02-15T11:50:23.982Z,7.72
2023-02-15T11:53:25.906Z,7.15
2023-02-15T11:56:26.193Z,6.43
2023-02-15T11:59:33.971Z,6.10
2023-02-15T12:02:24.482Z,9.30
2023-02-15T12:05:21.065Z,12.48
2023-02-15T12:08:18.554Z,10.52
2023-02-15T12:11:17.074Z,7.90
2023-02-15T12:14:08.389Z,9.63
2023-02-15T12:16:57.354Z,8.68
2023-02-15T12:19:43.901Z,7.88
2023-02-15T12:22:33.764Z,8.32
2023-02-15T12:25:27.956Z,9.07
2023-02-15T12:28:33.740Z,8.52
2023-02-15T12:31:24.225Z,10.75
2023-02-15T12:34:33.745Z,11.25
2023-02-15T12:37:26.676Z,13.35
2023-02-15T12:40:32.458Z,12.70
2023-02-15T12:43:37.518Z,11.25
2023-02-15T12:46:28.022Z,9.68
2023-02-15T12:49:21.922Z,10.95
2023-02-15T12:52:26.505Z,10.85
2023-02-15T12:55:31.850Z,10.93
2023-02-15T12:58:24.675Z,10.30
2023-02-15T13:01:11.966Z,10.98
2023-02-15T13:04:15.110Z,12.23
2023-02-15T13:07:03.720Z,11.73
2023-02-15T13:09:50.780Z,12.23
2023-02-15T13:12:36.705Z,12.63
2023-02-15T13:15:42.545Z,12.90
2023-02-15T13:18:51.655Z,15.25
2023-02-15T13:21:42.124Z,15.57
2023-02-15T13:24:56.422Z,15.32
2023-02-15T13:27:45.092Z,14.48
2023-02-15T13:30:39.749Z,15.52
2023-02-15T13:33:34.580Z,17.08
2023-02-15T13:36:29.317Z,15.10
2023-02-15T13:39:40.817Z,15.52
2023-02-15T13:42:40.922Z,19.45
2023-02-15T13:45:53.460Z,15.48
2023-02-15T13:49:22.413Z,14.07
2023-02-15T13:52:08.525Z,15.85
2023-02-15T13:55:03.386Z,17.27
2023-02-15T13:57:58.991Z,19.95
2023-02-15T14:01:20.600Z,17.35
2023-02-15T14:04:18.978Z,17.23
2023-02-15T14:07:26.654Z,21.15
2023-02-15T14:10:37.275Z,27.98
2023-02-15T14:14:00.649Z,19.27
2023-02-15T14:17:07.132Z,18.63
2023-02-15T14:20:02.412Z,21.65
2023-02-15T14:23:12.982Z,20.60
2023-02-15T14:26:28.948Z,19.45
2023-02-15T14:29:50.093Z,19.52
2023-02-15T14:32:45.588Z,21.08
2023-02-15T14:35:32.410Z,22.05
2023-02-15T14:38:52.126Z,21.95
2023-02-15T14:41:54.378Z,23.30
2023-02-15T14:44:55.177Z,29.83
2023-02-15T14:47:57.656Z,27.35
2023-02-15T14:50:46.382Z,23.65
2023-02-15T14:53:38.144Z,30.95
2023-02-15T14:56:26.012Z,27.83
2023-02-15T14:59:17.387Z,28.08
2023-02-15T15:02:09.994Z,25.05
2023-02-15T15:05:21.359Z,28.97
2023-02-15T15:08:07.581Z,26.83
2023-02-15T15:10:53.832Z,29.70
2023-02-15T15:13:52.773Z,26.17
2023-02-15T15:16:38.803Z,26.58
2023-02-15T15:19:51.443Z,26.40
2023-02-15T15:22:38.549Z,27.40
2023-02-15T15:25:45.691Z,28.15
2023-02-15T15:28:34.601Z,25.02
2023-02-15T15:31:52.282Z,29.67
2023-02-15T15:35:02.848Z,28.55
2023-02-15T15:37:48.921Z,33.28
2023-02-15T15:41:01.595Z,33.55
2023-02-15T15:44:21.474Z,30.90
2023-02-15T15:47:19.166Z,34.75
2023-02-15T15:50:15.758Z,29.40
2023-02-15T15:53:04.257Z,39.03
2023-02-15T15:55:53.206Z,33.83
2023-02-15T15:58:46.059Z,32.30
2023-02-15T16:01:41.537Z,38.55
2023-02-15T16:04:33.385Z,35.92
2023-02-15T16:07:19.063Z,37.30
2023-02-15T16:10:20.955Z,38.38
2023-02-15T16:13:08.283Z,36.17
2023-02-15T16:15:56.493Z,39.22
2023-02-15T16:18:45.821Z,35.08
2023-02-15T16:21:36.384Z,34.95
2023-02-15T16:24:44.588Z,31.55
2023-02-15T16:27:36.545Z,38.92
2023-02-15T16:30:31.350Z,37.08
2023-02-15T16:33:18.429Z,32.92
2023-02-15T16:36:06.161Z,33.70
2023-02-15T16:38:58.299Z,32.58
2023-02-15T16:41:47.104Z,37.40
2023-02-15T16:44:34.164Z,35.22
2023-02-15T16:47:27.342Z,36.10
2023-02-15T16:50:23.660Z,38.35
2023-02-15T16:53:19.362Z,33.83
2023-02-15T16:56:06.826Z,37.50
2023-02-15T16:58:55.086Z,37.28
2023-02-15T17:01:45.660Z,33.38
2023-02-15T17:04:32.620Z,33.85
2023-02-15T17:07:20.760Z,34.70
2023-02-15T17:10:27.981Z,33.78
2023-02-15T17:13:18.353Z,36.75
2023-02-15T17:16:04.734Z,32.92
2023-02-15T17:18:53.969Z,30.70
2023-02-15T17:21:52.364Z,32.80
2023-02-15T17:24:41.330Z,29.90
2023-02-15T17:27:32.096Z,35.35
2023-02-15T17:30:29.072Z,31.27
2023-02-15T17:33:30.720Z,31.92
2023-02-15T17:36:22.996Z,30.00
2023-02-15T17:39:23.494Z,36.17
2023-02-15T17:42:09.932Z,38.65
2023-02-15T17:44:56.077Z,38.85
2023-02-15T17:47:42.918Z,38.15
2023-02-15T17:50:29.607Z,37.08
2023-02-15T17:53:20.167Z,38.92
2023-02-15T17:56:10.697Z,37.13
2023-02-15T17:58:56.955Z,42.42
2023-02-15T18:02:07.178Z,39.95
2023-02-15T18:05:11.607Z,37.67
2023-02-15T18:08:16.264Z,38.22
2023-02-15T18:11:21.401Z,41.42
2023-02-15T18:14:11.677Z,35.95
2023-02-15T18:16:57.603Z,35.88
2023-02-15T18:19:45.078Z,34.15
2023-02-15T18:22:32.204Z,33.42
2023-02-15T18:25:21.288Z,35.97
2023-02-15T18:28:07.314Z,32.92
2023-02-15T18:30:53.214Z,33.70
2023-02-15T18:33:47.950Z,32.15
2023-02-15T18:36:43.081Z,30.88
2023-02-15T18:39:46.811Z,37.55
2023-02-15T18:42:36.737Z,33.67
2023-02-15T18:45:32.590Z,32.92
2023-02-15T18:48:19.221Z,38.17
2023-02-15T18:51:09.195Z,36.10
2023-02-15T18:53:55.125Z,31.58
2023-02-15T18:56:41.389Z,32.80
2023-02-15T18:59:30.561Z,29.55
2023-02-15T19:02:19.365Z,30.02
2023-02-15T19:05:06.007Z,33.85
2023-02-15T19:07:52.316Z,29.02
2023-02-15T19:10:38.592Z,32.78
2023-02-15T19:13:25.045Z,33.95
2023-02-15T19:16:20.330Z,35.67
2023-02-15T19:19:07.385Z,31.00
2023-02-15T19:21:53.371Z,33.10
2023-02-15T19:24:42.157Z,31.65
2023-02-15T19:27:33.042Z,30.50
2023-02-15T19:30:32.824Z,28.80
2023-02-15T19:33:20.828Z,33.92
2023-02-15T19:36:22.211Z,30.25
2023-02-15T19:39:35.282Z,31.83
2023-02-15T19:42:25.282Z,30.20
2023-02-15T19:45:26.004Z,27.63
2023-02-15T19:48:17.631Z,31.33
2023-02-15T19:51:04.686Z,28.75
2023-02-15T19:53:51.886Z,28.20
2023-02-15T19:56:37.855Z,28.08
2023-02-15T19:59:27.208Z,28.83
2023-02-15T20:02:15.294Z,25.55
2023-02-15T20:05:01.721Z,26.20
2023-02-15T20:07:50.072Z,29.60
2023-02-15T20:10:36.353Z,28.48
2023-02-15T20:13:23.090Z,28.77
2023-02-15T20:16:09.957Z,27.55
2023-02-15T20:18:55.910Z,32.80
2023-02-15T20:21:44.271Z,26.83
2023-02-15T20:24:30.776Z,26.13
2023-02-15T20:27:19.533Z,26.15
2023-02-15T20:30:14.153Z,29.75
2023-02-15T20:33:00.186Z,25.60
2023-02-15T20:35:46.631Z,28.83
2023-02-15T20:38:33.864Z,26.40
2023-02-15T20:41:37.581Z,28.92
2023-02-15T20:44:34.674Z,28.67
2023-02-15T20:47:21.490Z,29.80
2023-02-15T20:50:08.290Z,28.52
2023-02-15T20:52:57.673Z,32.33
2023-02-15T20:55:44.241Z,28.60
2023-02-15T20:58:31.075Z,29.90
2023-02-15T21:01:19.947Z,34.53
2023-02-15T21:04:08.581Z,33.63
2023-02-15T21:06:55.276Z,30.70
2023-02-15T21:09:41.172Z,30.88
2023-02-15T21:12:28.969Z,35.22
2023-02-15T21:15:50.937Z,29.70
2023-02-15T21:18:39.032Z,28.80
2023-02-15T21:21:24.954Z,28.35
2023-02-15T21:24:34.088Z,29.23
2023-02-15T21:27:20.326Z,27.23
2023-02-15T21:30:22.001Z,24.10
2023-02-15T21:33:08.062Z,28.80
2023-02-15T21:35:57.008Z,24.67
2023-02-15T21:38:43.037Z,26.50
2023-02-15T21:41:47.584Z,27.92
2023-02-15T21:44:54.226Z,28.33
2023-02-15T21:47:52.369Z,34.25
2023-02-15T21:50:57.168Z,33.33
2023-02-15T21:53:47.269Z,30.25
2023-02-15T21:56:33.244Z,29.48
2023-02-15T21:59:19.597Z,30.65
2023-02-15T22:02:25.758Z,31.95
2023-02-15T22:05:48.451Z,30.90
2023-02-15T22:08:39.252Z,29.05
2023-02-15T22:11:25.298Z,33.58
2023-02-15T22:14:42.270Z,28.15
2023-02-15T22:17:30.058Z,30.65
2023-02-15T22:20:21.876Z,26.25
2023-02-15T22:23:10.688Z,27.30
2023-02-15T22:26:02.520Z,27.27
2023-02-15T22:28:48.892Z,29.13
2023-02-15T22:31:35.372Z,31.67
2023-02-15T22:34:32.457Z,28.70
2023-02-15T22:37:19.232Z,34.67
2023-02-15T22:40:07.079Z,30.75
2023-02-15T22:42:54.841Z,30.50
2023-02-15T22:45:41.457Z,30.45
2023-02-15T22:48:28.733Z,31.60
2023-02-15T22:51:20.218Z,33.78
2023-02-15T22:54:06.649Z,35.35
2023-02-15T22:56:53.917Z,30.52
2023-02-15T22:59:41.399Z,33.75
2023-02-15T23:02:28.092Z,33.17
2023-02-15T23:05:21.936Z,32.58
2023-02-15T23:08:10.725Z,33.22
2023-02-15T23:10:57.628Z,33.30
2023-02-15T23:13:43.991Z,38.03
2023-02-15T23:16:30.233Z,33.22
2023-02-15T23:19:16.497Z,39.30
2023-02-15T23:22:02.896Z,33.85
2023-02-15T23:24:53.232Z,36.13
2023-02-15T23:27:57.162Z,33.90
2023-02-15T23:30:43.369Z,39.33
2023-02-15T23:33:34.198Z,31.52
2023-02-15T23:36:23.054Z,36.78
2023-02-15T23:39:45.444Z,33.70
2023-02-15T23:42:33.852Z,34.05
2023-02-15T23:45:23.643Z,32.85
2023-02-15T23:48:38.082Z,31.63
2023-02-15T23:51:30.864Z,33.92
2023-02-15T23:54:18.791Z,31.83
2023-02-15T23:57:04.930Z,36.72
2023-02-15T23:59:51.051Z,33.28
